Latest Weather Observations for Tunnack

IDT60801

Issued at 10:01 pm EDT Tuesday 3 March 2015 (issued every 30 minutes, with the page automatically refreshed every 10 minutes)

About weather observations | Map of weather stations | Latest weather observations for TAS | Other Formats
Station Details ID: 094195 Name: TUNNACK FIRE STATION Lat: -42.45 Lon: 147.46 Height: 461.5 m
Data from the previous 72 hours. | See also: Recent months at Tunnack
Date/Time
EDT
Temp
°C
App
Temp
°C
Dew
Point
Rel
Hum
%
Delta-T
°C
Wind Press
QNH
hPa
Press
MSL
hPa
Rain
since 9 am
mm
Dir
 
Spd
km/h
Gust
km/h
Spd
kts
Gust
kts
03/10:00pm 10.4 4.7 3.0 60 3.3 W 22 39 12 21 1011.2 1010.6 0.0
03/09:30pm 11.1 5.9 3.4 59 3.5 WSW 20 30 11 16 1011.1 1010.5 0.0
03/09:00pm 11.2 7.4 4.0 61 3.3 WSW 13 20 7 11 1011.3 1010.7 0.0
03/08:30pm 10.8 9.2 7.9 82 1.4 W 6 17 3 9 1011.1 1010.5 0.0
03/08:00pm 11.9 11.8 9.5 85 1.2 CALM 0 2 0 1 1010.9 1010.3 0.0
03/07:30pm 13.0 11.3 9.8 81 1.7 NE 9 15 5 8 1010.9 1010.3 0.0
03/07:00pm 14.0 12.3 10.0 77 2.1 NE 9 15 5 8 1011.1 1010.5 0.0
03/06:30pm 14.5 12.0 9.7 73 2.5 ENE 13 20 7 11 1011.0 1010.4 0.0
03/06:00pm 15.3 12.7 9.2 67 3.2 ENE 13 17 7 9 1010.9 1010.3 0.0
03/05:30pm 17.3 15.6 8.4 56 4.7 NE 7 20 4 11 1011.0 1010.4 0.0
03/05:00pm 18.6 15.0 5.1 41 6.7 NW 13 20 7 11 1011.1 1010.5 0.0
03/04:30pm 17.2 14.5 5.5 46 5.8 NNW 9 17 5 9 1011.4 1010.8 0.0
03/04:00pm 17.2 14.0 5.2 45 5.9 NW 11 17 6 9 1011.7 1011.2 0.0
03/03:30pm 18.9 16.1 5.0 40 6.9 N 9 17 5 9 1012.0 1011.5 0.0
03/03:00pm 18.1 14.1 4.7 41 6.6 NW 15 26 8 14 1012.5 1011.9 0.0
03/02:30pm 17.4 12.9 4.0 41 6.4 W 17 30 9 16 1013.0 1012.4 0.0
03/02:00pm 17.8 13.8 2.9 37 7.0 W 13 30 7 16 1013.1 1012.5 0.0
03/01:30pm 16.5 10.0 2.5 39 6.5 NW 26 41 14 22 1013.5 1012.9 0.0
03/01:00pm 16.1 11.8 3.2 42 6.0 WSW 15 24 8 13 1013.9 1013.4 0.0
03/12:30pm 16.3 11.2 3.0 41 6.2 W 19 28 10 15 1014.4 1013.9 0.0
03/12:00pm 15.7 10.1 3.2 43 5.8 WNW 22 35 12 19 1014.7 1014.1 0.0
03/11:30am 14.8 8.7 2.7 44 5.5 WNW 24 41 13 22 1014.8 1014.2 0.0
03/11:00am 14.6 9.3 3.1 46 5.3 W 20 33 11 18 1015.0 1014.4 0.0
03/10:30am 14.4 8.9 4.1 50 4.9 WNW 22 37 12 20 1014.7 1014.1 0.0
03/10:00am 13.2 9.1 6.3 63 3.4 W 17 26 9 14 1014.8 1014.2 0.0
03/09:30am 12.1 9.0 7.2 72 2.4 W 13 20 7 11 1014.7 1014.1 0.0
03/09:00am 10.9 9.3 8.1 83 1.4 WSW 6 7 3 4 1014.7 1014.1 0.0
03/08:30am 10.2 9.6 7.6 84 1.3 CALM 0 0 0 0 1014.4 1013.9 0.0
03/08:00am 8.6 7.4 8.0 96 0.3 SE 4 9 2 5 1014.2 1013.7 0.0
03/07:30am 7.7 7.0 6.8 94 0.4 CALM 0 4 0 2 1013.8 1013.3 0.0
03/07:00am 7.1 5.7 5.4 89 0.8 SE 2 6 1 3 1013.3 1012.7 0.0
03/06:30am 6.0 4.4 4.6 91 0.6 NNW 2 6 1 3 1012.7 1012.1 0.0
03/06:00am 6.7 3.1 4.9 88 0.8 WNW 13 19 7 10 1012.2 1011.7 0.0
03/05:30am 5.9 2.0 3.2 83 1.2 WNW 13 17 7 9 1012.1 1011.6 0.0
03/05:00am 5.6 2.2 3.9 89 0.7 WSW 11 13 6 7 1011.9 1011.4 0.0
03/04:30am 6.7 3.9 5.3 91 0.6 WSW 9 13 5 7 1012.0 1011.5 0.0
03/04:00am 5.9 3.1 3.4 84 1.1 SSW 7 11 4 6 1011.9 1011.4 0.0
03/03:30am 5.5 2.3 3.0 84 1.1 ESE 9 13 5 7 1012.0 1011.5 0.0
03/03:00am 6.0 3.1 2.6 79 1.4 E 7 9 4 5 1011.9 1011.4 0.0
03/02:30am 6.9 4.2 3.5 79 1.5 ESE 7 9 4 5 1012.1 1011.6 0.0
03/02:00am 7.1 4.3 3.0 75 1.8 ESE 7 9 4 5 1012.5 1011.9 0.0
03/01:30am 7.6 4.9 2.9 72 2.0 SE 6 9 3 5 1012.8 1012.2 0.0
03/01:00am 9.2 5.8 3.8 69 2.4 NW 11 17 6 9 1013.1 1012.5 0.0
03/12:30am 9.4 4.4 3.8 68 2.5 WNW 19 26 10 14 1013.5 1012.9 0.0
03/12:00am 10.0 4.1 4.0 66 2.7 WNW 24 37 13 20 1013.5 1012.9 0.0
 
Date/Time
EDT
Temp
°C
App
Temp
°C
Dew
Point
Rel
Hum
%
Delta-T
°C
Wind Press
QNH
hPa
Press
MSL
hPa
Rain
since 9 am
mm
Dir
 
Spd
km/h
Gust
km/h
Spd
kts
Gust
kts
02/11:30pm 10.1 6.6 5.3 72 2.2 W 13 20 7 11 1013.7 1013.2 0.0
02/11:00pm 10.4 6.2 5.8 73 2.2 W 17 28 9 15 1013.7 1013.2 0.0
02/10:30pm 9.8 7.2 6.2 78 1.7 WNW 9 13 5 7 1013.7 1013.2 0.0
02/10:00pm 10.0 7.8 6.3 78 1.8 NNW 7 13 4 7 1013.6 1013.1 0.0
02/09:30pm 10.5 8.0 6.5 76 1.9 NNW 9 15 5 8 1013.2 1012.6 0.0
02/09:00pm 11.3 6.9 6.6 73 2.3 N 19 26 10 14 1012.7 1012.1 0.0
02/08:30pm 12.1 6.8 6.6 69 2.7 N 24 39 13 21 1012.1 1011.6 0.0
02/08:00pm 12.8 6.2 5.9 63 3.3 N 30 43 16 23 1011.7 1011.2 0.0
02/07:30pm 13.7 7.2 4.6 54 4.3 N 28 37 15 20 1011.7 1011.2 0.0
02/07:00pm 14.1 6.3 4.7 53 4.5 N 35 50 19 27 1011.5 1010.9 0.0
02/06:30pm 14.7 8.3 5.2 53 4.6 N 28 39 15 21 1011.5 1010.9 0.0
02/06:00pm 15.3 9.3 5.2 51 4.9 N 26 37 14 20 1011.8 1011.3 0.0
02/05:30pm 15.8 8.3 3.6 44 5.7 N 32 41 17 22 1011.8 1011.3 0.0
02/05:00pm 16.4 9.3 3.8 43 6.0 N 30 39 16 21 1012.1 1011.6 0.0
02/04:30pm 16.4 9.1 4.4 45 5.8 N 32 43 17 23 1012.6 1012.0 0.0
02/04:00pm 16.2 10.1 6.6 53 4.8 N 28 37 15 20 1012.6 1012.0 0.0
02/03:56pm 16.1 9.9 6.3 52 4.9 N 28 46 15 25 1012.7 1012.1 0.0
02/03:30pm 16.1 9.2 6.5 53 4.8 N 32 43 17 23 1013.1 1012.5 0.0
02/03:00pm 16.4 8.6 6.5 52 5.0 N 37 52 20 28 1013.5 1012.9 0.0
02/02:30pm 16.9 9.1 6.7 51 5.2 N 37 50 20 27 1014.1 1013.6 0.0
02/02:00pm 16.4 8.1 6.2 51 5.1 N 39 59 21 32 1014.4 1013.9 0.0
02/01:59pm 16.8 8.9 6.3 50 5.3 N 37 57 20 31 1014.4 1013.9 0.0
02/01:30pm 17.0 8.5 6.8 51 5.2 N 41 52 22 28 1014.4 1013.9 0.0
02/01:00pm 17.0 8.7 5.9 48 5.5 N 39 50 21 27 1015.2 1014.6 0.0
02/12:43pm 17.2 9.0 6.7 50 5.3 N 39 57 21 31 1015.6 1015.1 0.0
02/12:30pm 17.4 9.7 7.2 51 5.2 N 37 50 20 27 1015.7 1015.2 0.0
02/12:06pm 17.3 11.6 8.2 55 4.8 N 28 46 15 25 1016.4 1015.9 0.0
02/12:00pm 15.8 10.3 9.0 64 3.6 NNW 28 43 15 23 1016.7 1016.2 0.0
02/11:46am 15.5 9.5 8.5 63 3.6 N 30 48 16 26 1017.0 1016.4 0.0
02/11:30am 14.4 8.2 7.9 65 3.3 N 30 44 16 24 1017.3 1016.7 0.0
02/11:00am 14.9 10.8 8.8 67 3.2 NNE 20 33 11 18 1017.7 1017.2 0.0
02/10:30am 12.2 8.0 5.6 64 3.2 NNE 17 24 9 13 1017.9 1017.4 0.0
02/10:00am 11.4 7.8 5.1 65 3.0 ENE 13 20 7 11 1017.9 1017.4 0.0
02/09:30am 10.3 7.0 4.7 68 2.6 NE 11 17 6 9 1018.0 1017.5 0.0
02/09:00am 9.0 6.0 4.2 72 2.2 NNE 9 11 5 6 1018.2 1017.7 0.8
02/08:30am 7.2 6.0 4.7 84 1.1 CALM 0 0 0 0 1018.5 1018.0 0.8
02/08:00am 5.6 4.6 5.5 99 0.0 CALM 0 0 0 0 1018.3 1017.8 0.8
02/07:30am 4.4 2.0 4.3 99 0.0 E 6 6 3 3 1018.0 1017.5 0.8
02/07:00am 3.7 2.3 3.6 99 0.0 CALM 0 0 0 0 1017.9 1017.4 0.8
02/06:30am 3.9 2.5 3.8 99 0.0 CALM 0 0 0 0 1017.9 1017.4 0.8
02/06:00am 3.4 2.0 3.3 99 0.0 CALM 0 0 0 0 1017.8 1017.3 0.8
02/05:30am 2.3 0.7 2.2 99 0.0 CALM 0 0 0 0 1017.8 1017.3 0.8
02/05:00am 1.1 -0.7 1.0 99 0.0 CALM 0 0 0 0 1017.8 1017.3 0.8
02/04:30am 1.4 -0.4 1.3 99 0.0 CALM 0 0 0 0 1017.9 1017.4 0.8
02/04:00am 0.9 -1.7 0.8 99 0.0 NW 4 7 2 4 1017.9 1017.4 0.8
02/03:30am 0.5 -1.8 0.2 98 0.1 SSE 2 7 1 4 1017.6 1017.1 0.8
02/03:00am 1.9 -0.2 1.8 99 0.0 WNW 2 7 1 4 1017.6 1017.1 0.8
02/02:30am 2.6 -0.1 2.5 99 0.0 SE 6 7 3 4 1017.4 1016.9 0.8
02/02:00am 0.8 -1.5 0.1 95 0.3 ESE 2 9 1 5 1017.4 1016.9 0.8
02/01:30am 2.6 -0.3 1.7 94 0.4 WNW 6 7 3 4 1017.5 1017.0 0.8
02/01:00am 2.4 -0.8 0.8 89 0.6 S 7 11 4 6 1017.5 1017.0 0.8
02/12:30am 4.2 0.9 2.6 89 0.7 WSW 9 13 5 7 1017.5 1017.0 0.8
02/12:00am 4.3 2.7 2.2 86 0.9 CALM 0 0 0 0 1017.3 1016.7 0.8
 
Date/Time
EDT
Temp
°C
App
Temp
°C
Dew
Point
Rel
Hum
%
Delta-T
°C
Wind Press
QNH
hPa
Press
MSL
hPa
Rain
since 9 am
mm
Dir
 
Spd
km/h
Gust
km/h
Spd
kts
Gust
kts
01/11:30pm 5.9 3.6 2.7 80 1.4 W 4 9 2 5 1017.2 1016.6 0.8
01/11:00pm 7.3 4.4 2.6 72 2.0 W 7 11 4 6 1017.3 1016.7 0.8
01/10:30pm 8.1 3.3 2.8 69 2.3 WSW 17 26 9 14 1017.3 1016.7 0.8
01/10:00pm 8.2 4.2 3.1 70 2.2 SW 13 22 7 12 1017.2 1016.6 0.8
01/09:30pm 9.0 3.9 3.2 67 2.6 WSW 19 24 10 13 1016.8 1016.3 0.8
01/09:00pm 9.1 4.4 3.1 66 2.6 WSW 17 22 9 12 1016.5 1016.0 0.8
01/08:30pm 9.4 5.5 3.2 65 2.7 WSW 13 20 7 11 1016.0 1015.5 0.8
01/08:00pm 10.6 5.9 3.4 61 3.2 WSW 17 26 9 14 1015.6 1015.1 0.8
01/07:30pm 11.4 6.7 3.4 58 3.6 WSW 17 30 9 16 1014.9 1014.3 0.8
01/07:00pm 12.6 7.4 3.5 54 4.2 WSW 20 28 11 15 1014.0 1013.5 0.8
01/06:30pm 14.0 8.6 4.3 52 4.6 W 22 35 12 19 1013.6 1013.1 0.8
01/06:00pm 15.3 9.4 4.1 47 5.3 WSW 24 41 13 22 1013.2 1012.6 0.8
01/05:30pm 14.4 10.5 7.2 62 3.6 SW 17 28 9 15 1012.5 1011.9 0.8
01/05:00pm 14.1 9.6 6.9 62 3.6 SSW 20 26 11 14 1012.1 1011.6 0.8
01/04:30pm 15.0 12.0 7.5 61 3.8 SSW 13 20 7 11 1011.6 1011.0 0.8
01/04:00pm 13.9 10.7 8.3 69 2.9 S 15 22 8 12 1011.5 1010.9 0.8
01/03:30pm 13.2 10.5 9.1 76 2.1 SSE 13 20 7 11 1011.2 1010.6 0.8
01/03:00pm 12.9 7.7 7.1 68 2.9 SW 24 33 13 18 1010.9 1010.3 0.0
01/02:30pm 15.5 11.4 8.0 61 3.9 WSW 19 24 10 13 1010.3 1009.7 0.0
01/02:00pm 14.2 9.8 6.6 60 3.8 SW 19 26 10 14 1010.0 1009.5 0.0
01/01:30pm 14.3 9.0 4.9 53 4.5 SW 22 30 12 16 1009.5 1008.9 0.0
01/01:00pm 14.9 9.7 5.7 54 4.5 WSW 22 33 12 18 1009.2 1008.6 0.0
01/12:30pm 14.4 10.2 8.1 66 3.2 SW 20 30 11 16 1009.1 1008.5 0.0
01/12:00pm 12.4 8.5 7.3 71 2.5 SW 17 28 9 15 1009.0 1008.4 0.0
01/11:30am 14.5 9.4 5.8 56 4.2 WSW 22 41 12 22 1008.4 1007.8 0.0
01/11:00am 13.6 8.4 5.7 59 3.8 WSW 22 35 12 19 1008.1 1007.5 0.0
01/10:30am 13.3 7.9 6.4 63 3.4 W 24 37 13 20 1007.4 1006.5 0.0
01/10:00am 13.5 8.3 7.1 65 3.2 WSW 24 35 13 19 1006.8 1005.9 0.0
01/09:45am 13.2 7.2 7.2 67 3.0 WSW 28 50 15 27 1006.6 1005.6 0.0
01/09:30am 13.1 7.7 8.0 71 2.6 WSW 26 37 14 20 1006.3 1005.3 0.0
01/09:00am 11.3 7.4 8.5 83 1.4 W 19 30 10 16 1006.0 1005.0 1.8
01/08:30am 11.1 7.7 7.8 80 1.6 WSW 15 24 8 13 1005.3 1004.4 1.8
01/08:00am 10.1 6.6 7.2 82 1.4 WSW 15 24 8 13 1004.6 1003.6 1.8
01/07:30am 10.1 6.3 7.5 84 1.3 W 17 24 9 13 1004.0 1003.0 1.8
01/07:00am 9.6 6.9 7.2 85 1.2 W 11 20 6 11 1003.6 1002.6 1.8
01/06:30am 10.0 6.1 6.9 81 1.5 W 17 28 9 15 1002.8 1001.8 1.8
01/06:00am 10.5 5.6 7.0 79 1.7 W 22 32 12 17 1002.2 1001.2 1.8
01/05:30am 10.7 5.4 7.0 78 1.8 W 24 33 13 18 1002.0 1001.0 1.8
01/05:00am 10.7 6.4 6.8 77 1.9 WSW 19 28 10 15 1002.0 1001.0 1.8
01/04:30am 11.3 6.8 7.0 75 2.1 WSW 20 39 11 21 1001.7 1000.7 1.8
01/04:00am 11.5 7.1 7.2 75 2.1 WSW 20 35 11 19 1001.3 1000.3 1.8
01/03:30am 11.7 8.2 7.4 75 2.1 W 15 24 8 13 1001.4 1000.4 1.8
01/03:00am 12.2 8.1 7.9 75 2.2 W 19 37 10 20 1001.4 1000.4 1.8
01/02:30am 12.6 8.3 7.7 72 2.5 WNW 20 37 11 20 1001.1 1000.0 1.8
01/02:00am 12.9 7.4 7.6 70 2.7 WNW 26 41 14 22 1000.6 999.6 1.8
01/01:30am 13.6 7.0 7.8 68 2.9 W 32 52 17 28 1000.5 999.5 1.8
01/01:11am 14.0 8.1 9.2 73 2.5 WNW 30 48 16 26 1000.4 999.4 1.8
01/01:00am 14.0 7.6 9.4 74 2.4 WNW 33 46 18 25 1000.4 999.4 1.8
01/12:30am 14.8 8.5 9.6 71 2.7 WNW 33 44 18 24 1000.8 999.8 1.8
01/12:03am 15.5 9.0 10.5 72 2.7 WNW 35 54 19 29 1000.5 999.5 1.8
01/12:00am 15.6 8.7 10.4 71 2.8 WNW 37 54 20 29 1000.4 999.4 1.8
 
Date/Time
EDT
Temp
°C
App
Temp
°C
Dew
Point
Rel
Hum
%
Delta-T
°C
Wind Press
QNH
hPa
Press
MSL
hPa
Rain
since 9 am
mm
Dir
 
Spd
km/h
Gust
km/h
Spd
kts
Gust
kts
28/11:46pm 15.9 11.1 11.5 75 2.4 WNW 28 46 15 25 1000.4 999.4 1.8
28/11:41pm 16.0 12.8 12.0 77 2.2 NW 20 43 11 23 1000.5 999.5 1.8
28/11:30pm 15.7 13.5 14.4 92 0.8 NNW 19 22 10 12 1000.7 999.7 1.8
28/11:00pm 15.3 13.5 14.5 95 0.5 NNW 17 22 9 12 1000.3 999.3 1.8
28/10:30pm 15.1 13.4 14.6 97 0.3 NNW 17 22 9 12 1000.5 999.5 1.8

Other Formats:

Comma delimited format used in spreadsheet applications
http://www.bom.gov.au/fwo/IDT60801/IDT60801.94960.axf

JavaScript Object Notation format (JSON) in row-major order
http://www.bom.gov.au/fwo/IDT60801/IDT60801.94960.json